createdAt,value
2019-01-21T00:00:42.874Z,7.56
2019-01-21T00:03:14.702Z,7.54
2019-01-21T00:05:43.642Z,7.73
2019-01-21T00:08:13.103Z,7.62
2019-01-21T00:10:42.504Z,7.68
2019-01-21T00:13:11.960Z,7.75
2019-01-21T00:15:41.481Z,7.77
2019-01-21T00:18:10.893Z,7.76
2019-01-21T00:20:40.332Z,7.61
2019-01-21T00:23:09.693Z,7.74
2019-01-21T00:25:39.196Z,7.72
2019-01-21T00:28:08.751Z,7.67
2019-01-21T00:30:38.115Z,7.62
2019-01-21T00:33:07.545Z,7.46
2019-01-21T00:35:36.931Z,7.55
2019-01-21T00:38:06.385Z,7.35
2019-01-21T00:40:35.760Z,7.44
2019-01-21T00:43:05.289Z,7.56
2019-01-21T00:45:34.657Z,7.67
2019-01-21T00:48:04.167Z,7.46
2019-01-21T00:50:33.549Z,7.31
2019-01-21T00:53:02.931Z,7.66
2019-01-21T00:55:32.441Z,7.81
2019-01-21T00:58:01.836Z,7.71
2019-01-21T01:00:31.374Z,7.75
2019-01-21T01:03:00.848Z,7.42
2019-01-21T01:05:30.377Z,7.47
2019-01-21T01:07:59.821Z,7.45
2019-01-21T01:10:29.207Z,7.41
2019-01-21T01:12:58.743Z,7.29
2019-01-21T01:15:28.198Z,7.23
2019-01-21T01:17:57.607Z,7.00
2019-01-21T01:20:27.045Z,7.06
2019-01-21T01:22:56.420Z,7.10
2019-01-21T01:25:25.781Z,7.09
2019-01-21T01:27:55.240Z,7.14
2019-01-21T01:30:24.611Z,7.22
2019-01-21T01:32:54.062Z,7.35
2019-01-21T01:35:23.570Z,7.12
2019-01-21T01:37:53.037Z,7.29
2019-01-21T01:40:22.493Z,7.35
2019-01-21T01:42:51.949Z,7.45
2019-01-21T01:45:23.520Z,7.29
2019-01-21T01:48:02.949Z,7.03
2019-01-21T01:50:32.703Z,6.82
2019-01-21T01:53:02.247Z,6.65
2019-01-21T01:55:32.728Z,6.75
2019-01-21T01:58:06.568Z,7.09
2019-01-21T02:00:36.933Z,7.27
2019-01-21T02:03:06.502Z,7.05
2019-01-21T02:05:35.901Z,7.08
2019-01-21T02:08:05.514Z,6.86
2019-01-21T02:10:34.953Z,6.67
2019-01-21T02:13:04.861Z,6.45
2019-01-21T02:15:34.337Z,6.36
2019-01-21T02:18:03.918Z,6.30
2019-01-21T02:20:33.367Z,6.21
2019-01-21T02:23:06.267Z,6.17
2019-01-21T02:25:50.086Z,6.08
2019-01-21T02:28:47.460Z,5.98
2019-01-21T02:31:55.250Z,6.00
2019-01-21T02:34:56.106Z,5.97
2019-01-21T02:38:05.353Z,5.81
2019-01-21T02:40:52.867Z,5.83
2019-01-21T02:43:57.087Z,6.12
2019-01-21T02:46:50.601Z,5.80
2019-01-21T02:50:00.115Z,5.76
2019-01-21T02:53:12.152Z,5.84
2019-01-21T02:56:13.848Z,6.03
2019-01-21T02:59:07.329Z,6.01
2019-01-21T03:02:18.035Z,6.07
2019-01-21T03:05:18.096Z,6.17
2019-01-21T03:08:30.295Z,6.24
2019-01-21T03:11:37.074Z,6.18
2019-01-21T03:14:18.932Z,6.17
2019-01-21T03:17:28.310Z,6.20
2019-01-21T03:20:12.654Z,6.21
2019-01-21T03:23:29.961Z,6.39
2019-01-21T03:26:36.538Z,6.36
2019-01-21T03:29:26.599Z,6.39
2019-01-21T03:32:35.644Z,6.37
2019-01-21T03:35:27.460Z,6.36
2019-01-21T03:38:33.738Z,6.57
2019-01-21T03:41:41.183Z,6.46
2019-01-21T03:44:49.095Z,6.62
2019-01-21T03:47:41.564Z,6.77
2019-01-21T03:50:38.488Z,6.68
2019-01-21T03:53:55.316Z,6.64
2019-01-21T03:56:44.486Z,6.92
2019-01-21T03:59:38.535Z,6.57
2019-01-21T04:02:56.685Z,6.65
2019-01-21T04:06:04.210Z,6.62
2019-01-21T04:09:16.149Z,6.89
2019-01-21T04:12:45.310Z,6.38
2019-01-21T04:15:50.301Z,6.39
2019-01-21T04:18:53.016Z,6.34
2019-01-21T04:22:24.871Z,6.47
2019-01-21T04:25:44.066Z,6.39
2019-01-21T04:28:31.451Z,6.07
2019-01-21T04:31:27.316Z,6.13
2019-01-21T04:34:34.055Z,6.28
2019-01-21T04:37:29.471Z,6.16
2019-01-21T04:40:27.597Z,6.30
2019-01-21T04:43:31.268Z,6.43
2019-01-21T04:46:41.344Z,6.44
2019-01-21T04:49:51.284Z,6.02
2019-01-21T04:52:42.237Z,5.62
2019-01-21T04:55:51.196Z,5.59
2019-01-21T04:58:36.111Z,5.59
2019-01-21T05:01:45.454Z,5.96
2019-01-21T05:04:51.993Z,5.67
2019-01-21T05:07:37.346Z,5.50
2019-01-21T05:10:37.071Z,5.63
2019-01-21T05:13:55.029Z,5.44
2019-01-21T05:16:34.250Z,5.22
2019-01-21T05:19:31.796Z,5.20
2019-01-21T05:22:35.838Z,5.22
2019-01-21T05:25:50.994Z,5.38
2019-01-21T05:28:55.982Z,5.24
2019-01-21T05:32:19.028Z,5.72
2019-01-21T05:35:28.455Z,5.88
2019-01-21T05:38:16.924Z,5.90
2019-01-21T05:41:24.371Z,5.54
2019-01-21T05:44:26.562Z,5.60
2019-01-21T05:47:17.526Z,5.57
2019-01-21T05:50:14.616Z,5.57
2019-01-21T05:52:57.131Z,5.42
2019-01-21T05:56:02.573Z,5.27
2019-01-21T05:59:07.585Z,5.35
2019-01-21T06:02:03.490Z,5.29
2019-01-21T06:05:08.478Z,4.97
2019-01-21T06:08:22.601Z,5.01
2019-01-21T06:11:24.855Z,4.99
2019-01-21T06:14:20.670Z,4.92
2019-01-21T06:17:20.139Z,5.16
2019-01-21T06:20:42.272Z,5.40
2019-01-21T06:23:44.947Z,5.39
2019-01-21T06:26:50.150Z,5.15
2019-01-21T06:29:41.216Z,5.03
2019-01-21T06:32:27.222Z,4.98
2019-01-21T06:35:24.780Z,5.04
2019-01-21T06:38:19.670Z,4.81
2019-01-21T06:41:26.006Z,4.96
2019-01-21T06:44:25.553Z,4.77
2019-01-21T06:47:30.834Z,4.62
2019-01-21T06:50:22.723Z,4.85
2019-01-21T06:53:16.918Z,4.73
2019-01-21T06:56:19.179Z,4.61
2019-01-21T06:59:42.282Z,4.79
2019-01-21T07:02:25.002Z,4.61
2019-01-21T07:05:27.759Z,4.44
2019-01-21T07:08:22.002Z,4.51
2019-01-21T07:11:19.240Z,4.54
2019-01-21T07:14:16.033Z,4.69
2019-01-21T07:17:14.534Z,4.68
2019-01-21T07:20:09.393Z,4.63
2019-01-21T07:23:17.199Z,4.57
2019-01-21T07:26:17.191Z,4.61
2019-01-21T07:29:40.018Z,4.84
2019-01-21T07:32:43.999Z,5.17
2019-01-21T07:35:47.529Z,4.80
2019-01-21T07:39:04.251Z,4.89
2019-01-21T07:41:49.622Z,4.76
2019-01-21T07:45:02.034Z,4.73
2019-01-21T07:47:44.662Z,4.48
2019-01-21T07:50:38.811Z,6.28
2019-01-21T07:53:45.452Z,7.04
2019-01-21T07:56:51.643Z,7.38
2019-01-21T07:59:52.732Z,6.55
2019-01-21T08:02:46.626Z,5.99
2019-01-21T08:06:01.945Z,5.78
2019-01-21T08:08:57.125Z,5.64
2019-01-21T08:11:37.161Z,5.88
2019-01-21T08:14:37.735Z,5.62
2019-01-21T08:17:48.419Z,5.73
2019-01-21T08:20:22.890Z,5.67
2019-01-21T08:23:30.225Z,5.62
2019-01-21T08:26:31.448Z,5.47
2019-01-21T08:29:24.489Z,5.39
2019-01-21T08:32:10.247Z,5.37
2019-01-21T08:34:49.037Z,5.37
2019-01-21T08:37:53.309Z,5.52
2019-01-21T08:40:57.810Z,5.61
2019-01-21T08:44:02.724Z,5.59
2019-01-21T08:47:28.525Z,5.97
2019-01-21T08:50:16.498Z,5.92
2019-01-21T08:53:18.933Z,6.21
2019-01-21T08:56:25.618Z,6.14
2019-01-21T08:59:29.057Z,6.02
2019-01-21T09:02:17.513Z,6.13
2019-01-21T09:05:11.490Z,6.17
2019-01-21T09:08:24.966Z,6.72
2019-01-21T09:11:47.665Z,6.65
2019-01-21T09:14:39.759Z,6.55
2019-01-21T09:17:33.164Z,6.65
2019-01-21T09:20:23.393Z,6.64
2019-01-21T09:23:06.141Z,6.79
2019-01-21T09:25:58.343Z,6.86
2019-01-21T09:28:59.905Z,6.88
2019-01-21T09:31:53.054Z,7.02
2019-01-21T09:34:51.720Z,7.41
2019-01-21T09:38:02.860Z,7.38
2019-01-21T09:41:09.246Z,8.11
2019-01-21T09:44:00.285Z,7.89
2019-01-21T09:46:47.580Z,8.01
2019-01-21T09:49:15.652Z,7.88
2019-01-21T09:51:57.617Z,8.08
2019-01-21T09:54:27.307Z,8.23
2019-01-21T09:56:57.999Z,8.29
2019-01-21T09:59:27.365Z,8.42
2019-01-21T10:01:57.973Z,8.55
2019-01-21T10:04:37.242Z,8.66
2019-01-21T10:07:49.019Z,9.01
2019-01-21T10:10:51.516Z,9.33
2019-01-21T10:13:42.106Z,9.25
2019-01-21T10:16:21.739Z,9.29
2019-01-21T10:19:50.341Z,9.42
2019-01-21T10:22:59.443Z,9.42
2019-01-21T10:26:06.151Z,9.50
2019-01-21T10:29:13.518Z,9.62
2019-01-21T10:32:27.163Z,9.74
2019-01-21T10:35:27.515Z,9.78
2019-01-21T10:38:33.383Z,9.88
2019-01-21T10:41:27.056Z,9.97
2019-01-21T10:44:17.414Z,9.99
2019-01-21T10:47:29.928Z,10.09
2019-01-21T10:50:43.786Z,10.13
2019-01-21T10:53:28.785Z,10.22
2019-01-21T10:56:29.668Z,10.31
2019-01-21T10:59:41.956Z,10.39
2019-01-21T11:02:40.928Z,10.49
2019-01-21T11:05:20.098Z,10.60
2019-01-21T11:08:32.020Z,10.68
2019-01-21T11:11:55.191Z,10.80
2019-01-21T11:15:11.259Z,10.93
2019-01-21T11:18:21.301Z,11.02
2019-01-21T11:21:17.942Z,11.11
2019-01-21T11:24:16.993Z,11.23
2019-01-21T11:27:30.532Z,11.34
2019-01-21T11:30:17.552Z,11.41
2019-01-21T11:33:18.924Z,11.51
2019-01-21T11:36:11.825Z,11.65
2019-01-21T11:39:05.142Z,11.78
2019-01-21T11:41:46.030Z,11.86
2019-01-21T11:44:47.423Z,11.95
2019-01-21T11:47:44.641Z,12.04
2019-01-21T11:50:36.424Z,12.13
2019-01-21T11:53:33.540Z,12.14
2019-01-21T11:56:36.753Z,12.23
2019-01-21T11:59:43.260Z,12.30
2019-01-21T12:02:31.919Z,12.43
2019-01-21T12:05:11.918Z,12.50
2019-01-21T12:08:16.595Z,12.53
2019-01-21T12:11:12.221Z,12.58
2019-01-21T12:14:21.891Z,12.63
2019-01-21T12:17:53.900Z,12.65
2019-01-21T12:20:55.963Z,12.73
2019-01-21T12:23:53.832Z,12.94
2019-01-21T12:26:35.854Z,13.02
2019-01-21T12:29:40.908Z,13.07
2019-01-21T12:32:47.068Z,13.12
2019-01-21T12:35:39.818Z,13.28
2019-01-21T12:38:45.888Z,13.27
2019-01-21T12:41:28.107Z,13.41
2019-01-21T12:44:46.322Z,13.39
2019-01-21T12:47:28.491Z,13.35
2019-01-21T12:50:37.114Z,13.35
2019-01-21T12:53:38.562Z,13.38
2019-01-21T12:56:38.844Z,13.34
2019-01-21T12:59:21.616Z,13.37
2019-01-21T13:02:14.273Z,13.41
2019-01-21T13:05:20.944Z,13.43
2019-01-21T13:08:27.461Z,13.43
2019-01-21T13:11:06.098Z,13.47
2019-01-21T13:14:15.256Z,13.38
2019-01-21T13:17:24.590Z,13.37
2019-01-21T13:20:30.645Z,13.31
2019-01-21T13:23:23.360Z,13.25
2019-01-21T13:26:39.255Z,13.32
2019-01-21T13:29:38.557Z,13.26
2019-01-21T13:32:40.393Z,13.12
2019-01-21T13:36:06.116Z,13.13
2019-01-21T13:39:18.483Z,13.09
2019-01-21T13:42:25.068Z,13.02
2019-01-21T13:45:21.714Z,12.87
2019-01-21T13:48:04.112Z,12.87
2019-01-21T13:51:00.830Z,12.75
2019-01-21T13:54:07.311Z,12.69
2019-01-21T13:56:51.243Z,12.74
2019-01-21T13:59:56.545Z,12.67
2019-01-21T14:02:46.496Z,12.66
2019-01-21T14:05:47.816Z,12.57
2019-01-21T14:08:51.095Z,12.45
2019-01-21T14:11:52.684Z,12.43
2019-01-21T14:14:35.409Z,12.34
2019-01-21T14:17:44.956Z,12.32
2019-01-21T14:20:35.684Z,12.35
2019-01-21T14:23:41.884Z,12.31
2019-01-21T14:26:33.419Z,12.23
2019-01-21T14:29:30.879Z,12.14
2019-01-21T14:33:02.668Z,12.05
2019-01-21T14:36:00.515Z,12.11
2019-01-21T14:39:10.619Z,12.13
2019-01-21T14:42:17.692Z,12.06
2019-01-21T14:45:09.416Z,12.05
2019-01-21T14:48:23.823Z,12.10
2019-01-21T14:51:33.579Z,12.16
2019-01-21T14:54:16.157Z,12.22
2019-01-21T14:57:00.841Z,12.26
2019-01-21T15:00:11.558Z,12.29
2019-01-21T15:02:54.188Z,12.32
2019-01-21T15:05:56.629Z,12.34
2019-01-21T15:08:54.084Z,12.35
2019-01-21T15:11:47.039Z,12.34
2019-01-21T15:14:38.981Z,12.32
2019-01-21T15:17:45.271Z,12.28
2019-01-21T15:20:21.829Z,12.21
2019-01-21T15:23:04.387Z,12.17
2019-01-21T15:25:57.592Z,12.13
2019-01-21T15:28:54.895Z,12.07
2019-01-21T15:32:11.635Z,11.95
2019-01-21T15:35:20.640Z,11.81
2019-01-21T15:38:22.761Z,11.63
2019-01-21T15:41:44.258Z,11.43
2019-01-21T15:45:02.607Z,11.28
2019-01-21T15:47:41.933Z,11.23
2019-01-21T15:50:35.995Z,11.11
2019-01-21T15:53:41.326Z,11.00
2019-01-21T15:56:40.668Z,10.89
2019-01-21T15:59:35.856Z,10.70
2019-01-21T16:02:15.041Z,10.51
2019-01-21T16:04:57.765Z,10.32
2019-01-21T16:07:36.300Z,10.16
2019-01-21T16:10:41.330Z,10.03
2019-01-21T16:13:39.013Z,9.86
2019-01-21T16:16:42.706Z,9.68
2019-01-21T16:19:34.762Z,9.52
2019-01-21T16:22:34.604Z,9.36
2019-01-21T16:25:27.101Z,9.29
2019-01-21T16:28:29.976Z,9.19
2019-01-21T16:31:41.890Z,9.07
2019-01-21T16:34:47.127Z,9.01
2019-01-21T16:37:38.970Z,8.87
2019-01-21T16:40:51.893Z,8.74
2019-01-21T16:43:21.358Z,8.67
2019-01-21T16:45:50.763Z,8.55
2019-01-21T16:48:20.187Z,8.54
2019-01-21T16:50:49.532Z,8.50
2019-01-21T16:53:18.885Z,8.36
2019-01-21T16:55:48.252Z,8.33
2019-01-21T16:58:17.687Z,8.27
2019-01-21T17:00:47.012Z,8.20
2019-01-21T17:03:16.347Z,8.16
2019-01-21T17:05:45.768Z,8.05
2019-01-21T17:08:15.121Z,8.02
2019-01-21T17:10:44.614Z,7.86
2019-01-21T17:13:14.262Z,7.75
2019-01-21T17:15:43.726Z,7.79
2019-01-21T17:18:13.182Z,7.72
2019-01-21T17:20:42.533Z,7.66
2019-01-21T17:23:12.015Z,7.59
2019-01-21T17:25:41.440Z,7.53
2019-01-21T17:28:11.102Z,7.59
2019-01-21T17:30:40.526Z,7.48
2019-01-21T17:33:09.925Z,7.49
2019-01-21T17:35:39.282Z,7.43
2019-01-21T17:38:08.693Z,7.43
2019-01-21T17:40:38.120Z,7.34
2019-01-21T17:43:07.472Z,7.33
2019-01-21T17:45:36.845Z,7.06
2019-01-21T17:48:06.260Z,7.10
2019-01-21T17:50:35.622Z,7.08
2019-01-21T17:53:05.045Z,6.88
2019-01-21T17:55:34.387Z,7.00
2019-01-21T17:58:03.971Z,7.02
2019-01-21T18:00:34.222Z,6.96
2019-01-21T18:03:03.510Z,7.15
2019-01-21T18:05:32.956Z,7.17
2019-01-21T18:08:02.390Z,7.12
2019-01-21T18:10:31.719Z,6.98
2019-01-21T18:13:01.138Z,6.91
2019-01-21T18:15:30.575Z,6.82
2019-01-21T18:17:59.943Z,6.89
2019-01-21T18:20:29.407Z,7.09
2019-01-21T18:22:58.828Z,7.01
2019-01-21T18:25:28.211Z,7.01
2019-01-21T18:27:57.618Z,6.86
2019-01-21T18:30:27.750Z,6.83
2019-01-21T18:32:57.182Z,6.85
2019-01-21T18:35:26.732Z,6.89
2019-01-21T18:37:56.175Z,6.82
2019-01-21T18:40:25.662Z,6.69
2019-01-21T18:42:55.040Z,6.69
2019-01-21T18:45:26.522Z,6.81
2019-01-21T18:47:55.929Z,6.85
2019-01-21T18:50:25.447Z,6.78
2019-01-21T18:52:55.115Z,6.62
2019-01-21T18:55:24.483Z,6.52
2019-01-21T18:57:55.984Z,6.48
2019-01-21T19:00:25.977Z,6.55
2019-01-21T19:02:55.548Z,6.55
2019-01-21T19:05:25.030Z,6.62
2019-01-21T19:07:54.363Z,6.82
2019-01-21T19:10:23.794Z,6.73
2019-01-21T19:12:53.212Z,6.55
2019-01-21T19:15:25.111Z,6.51
2019-01-21T19:17:54.473Z,6.66
2019-01-21T19:20:23.824Z,6.72
2019-01-21T19:22:53.165Z,6.64
2019-01-21T19:25:22.539Z,6.62
2019-01-21T19:27:52.086Z,6.77
2019-01-21T19:30:23.748Z,6.61
2019-01-21T19:32:53.155Z,6.33
2019-01-21T19:35:28.208Z,6.22
2019-01-21T19:37:57.620Z,5.94
2019-01-21T19:40:27.060Z,5.97
2019-01-21T19:42:56.432Z,6.27
2019-01-21T19:45:25.868Z,6.24
2019-01-21T19:47:55.291Z,6.23
2019-01-21T19:50:24.804Z,6.19
2019-01-21T19:52:54.313Z,6.20
2019-01-21T19:55:43.381Z,6.32
2019-01-21T19:58:13.146Z,6.43
2019-01-21T20:00:42.613Z,6.46
2019-01-21T20:03:12.011Z,6.28
2019-01-21T20:05:41.370Z,6.38
2019-01-21T20:08:10.702Z,6.49
2019-01-21T20:10:40.062Z,6.58
2019-01-21T20:13:09.481Z,6.49
2019-01-21T20:15:38.826Z,6.50
2019-01-21T20:18:08.254Z,6.55
2019-01-21T20:20:39.808Z,6.42
2019-01-21T20:23:09.409Z,6.45
2019-01-21T20:25:38.734Z,6.33
2019-01-21T20:28:08.275Z,6.41
2019-01-21T20:30:37.657Z,6.36
2019-01-21T20:33:07.133Z,6.25
2019-01-21T20:35:36.480Z,6.34
2019-01-21T20:38:05.925Z,6.25
2019-01-21T20:40:35.318Z,6.22
2019-01-21T20:43:04.885Z,6.39
2019-01-21T20:45:34.353Z,6.31
2019-01-21T20:48:03.691Z,6.28
2019-01-21T20:50:33.436Z,6.01
2019-01-21T20:53:02.929Z,6.03
2019-01-21T20:55:32.362Z,5.99
2019-01-21T20:58:01.730Z,6.04
2019-01-21T21:00:31.289Z,6.04
2019-01-21T21:03:00.765Z,6.09
2019-01-21T21:05:30.266Z,5.89
2019-01-21T21:07:59.615Z,5.79
2019-01-21T21:10:28.990Z,5.68
2019-01-21T21:12:58.325Z,5.46
2019-01-21T21:15:30.096Z,5.31
2019-01-21T21:17:59.557Z,5.16
2019-01-21T21:20:28.948Z,5.11
2019-01-21T21:22:58.314Z,5.23
2019-01-21T21:25:27.675Z,5.08
2019-01-21T21:27:57.080Z,4.97
2019-01-21T21:30:31.284Z,4.88
2019-01-21T21:33:00.765Z,4.62
2019-01-21T21:35:30.254Z,4.68
2019-01-21T21:37:59.650Z,4.64
2019-01-21T21:40:29.062Z,4.72
2019-01-21T21:42:58.409Z,4.70
2019-01-21T21:45:27.989Z,4.61
2019-01-21T21:48:00.971Z,4.56
2019-01-21T21:50:30.644Z,4.51
2019-01-21T21:53:00.063Z,4.50
2019-01-21T21:55:29.842Z,4.49
2019-01-21T21:57:59.215Z,4.36
2019-01-21T22:00:29.467Z,4.49
2019-01-21T22:02:58.951Z,4.33
2019-01-21T22:05:28.368Z,4.26
2019-01-21T22:07:57.755Z,4.16
2019-01-21T22:10:28.719Z,4.15
2019-01-21T22:12:58.203Z,4.20
2019-01-21T22:15:27.709Z,4.55
2019-01-21T22:17:57.128Z,4.94
2019-01-21T22:20:26.627Z,4.82
2019-01-21T22:22:55.987Z,5.05
2019-01-21T22:25:25.488Z,5.12
2019-01-21T22:27:54.894Z,5.23
2019-01-21T22:30:28.026Z,5.58
2019-01-21T22:32:57.411Z,5.60
2019-01-21T22:35:26.868Z,5.28
2019-01-21T22:37:56.309Z,4.68
2019-01-21T22:40:25.693Z,4.63
2019-01-21T22:42:55.043Z,4.60
2019-01-21T22:45:24.465Z,5.02
2019-01-21T22:47:53.818Z,5.10
2019-01-21T22:50:23.286Z,5.11
2019-01-21T22:52:52.632Z,5.21
2019-01-21T22:55:22.056Z,5.31
2019-01-21T22:57:51.456Z,5.29
2019-01-21T23:00:56.929Z,5.35
2019-01-21T23:03:27.354Z,5.29
2019-01-21T23:05:56.680Z,5.35
2019-01-21T23:08:26.044Z,5.39
2019-01-21T23:10:55.453Z,5.21
2019-01-21T23:13:24.839Z,5.23
2019-01-21T23:15:54.233Z,5.27
2019-01-21T23:18:23.687Z,5.37
2019-01-21T23:20:53.210Z,5.10
2019-01-21T23:23:22.585Z,5.28
2019-01-21T23:25:51.903Z,5.03
2019-01-21T23:28:21.260Z,5.04
2019-01-21T23:30:50.606Z,4.80
2019-01-21T23:33:20.248Z,4.99
2019-01-21T23:35:49.646Z,4.66
2019-01-21T23:38:18.981Z,4.42
2019-01-21T23:40:48.315Z,4.83
2019-01-21T23:43:17.651Z,5.08
2019-01-21T23:45:46.990Z,4.94
2019-01-21T23:48:16.356Z,4.73
2019-01-21T23:50:45.706Z,4.74
2019-01-21T23:53:15.073Z,4.65
2019-01-21T23:55:44.428Z,4.92
2019-01-21T23:58:13.765Z,4.96
